createdAt,value
2023-05-19T00:01:25.159Z,8.63
2023-05-19T00:03:55.981Z,9.35
2023-05-19T00:06:25.565Z,8.20
2023-05-19T00:09:07.663Z,7.22
2023-05-19T00:11:36.806Z,8.18
2023-05-19T00:14:07.305Z,7.97
2023-05-19T00:16:35.249Z,7.60
2023-05-19T00:19:05.487Z,9.13
2023-05-19T00:21:33.392Z,10.05
2023-05-19T00:24:01.432Z,8.50
2023-05-19T00:26:29.015Z,7.93
2023-05-19T00:28:56.903Z,8.77
2023-05-19T00:31:24.498Z,8.57
2023-05-19T00:33:52.443Z,8.13
2023-05-19T00:36:20.507Z,7.55
2023-05-19T00:38:48.118Z,9.43
2023-05-19T00:41:15.789Z,7.50
2023-05-19T00:43:43.753Z,8.63
2023-05-19T00:46:11.415Z,8.00
2023-05-19T00:48:39.318Z,8.35
2023-05-19T00:51:07.419Z,6.97
2023-05-19T00:53:35.584Z,9.00
2023-05-19T00:56:03.565Z,7.37
2023-05-19T00:58:32.812Z,7.93
2023-05-19T01:01:07.007Z,7.72
2023-05-19T01:03:36.329Z,7.68
2023-05-19T01:06:07.849Z,7.75
2023-05-19T01:08:38.197Z,7.13
2023-05-19T01:11:06.970Z,6.85
2023-05-19T01:13:36.340Z,7.80
2023-05-19T01:16:24.895Z,7.50
2023-05-19T01:19:01.764Z,6.95
2023-05-19T01:21:47.989Z,6.63
2023-05-19T01:24:30.575Z,6.80
2023-05-19T01:27:21.149Z,6.15
2023-05-19T01:30:09.544Z,6.35
2023-05-19T01:32:41.414Z,6.70
2023-05-19T01:35:10.616Z,5.87
2023-05-19T01:37:39.915Z,6.03
2023-05-19T01:40:10.923Z,6.00
2023-05-19T01:42:40.623Z,5.25
2023-05-19T01:45:11.841Z,6.82
2023-05-19T01:47:43.625Z,5.13
2023-05-19T01:50:11.485Z,5.72
2023-05-19T01:52:39.557Z,5.75
2023-05-19T01:55:09.005Z,9.60
2023-05-19T01:57:54.829Z,6.05
2023-05-19T02:00:58.958Z,5.23
2023-05-19T02:03:38.138Z,4.90
2023-05-19T02:06:24.596Z,4.53
2023-05-19T02:08:58.819Z,3.87
2023-05-19T02:11:42.313Z,5.68
2023-05-19T02:14:20.118Z,4.57
2023-05-19T02:16:48.905Z,6.28
2023-05-19T02:19:32.125Z,4.43
2023-05-19T02:22:00.126Z,5.82
2023-05-19T02:24:27.698Z,6.15
2023-05-19T02:26:55.306Z,6.50
2023-05-19T02:29:23.208Z,6.72
2023-05-19T02:31:51.374Z,5.70
2023-05-19T02:34:19.747Z,4.72
2023-05-19T02:36:49.962Z,5.95
2023-05-19T02:39:17.716Z,6.47
2023-05-19T02:41:45.393Z,4.62
2023-05-19T02:44:13.258Z,6.60
2023-05-19T02:46:41.032Z,5.68
2023-05-19T02:49:08.625Z,4.50
2023-05-19T02:51:36.436Z,5.70
2023-05-19T02:54:04.106Z,6.07
2023-05-19T02:56:31.728Z,5.07
2023-05-19T02:58:59.649Z,6.87
2023-05-19T03:01:27.264Z,5.55
2023-05-19T03:03:54.962Z,6.80
2023-05-19T03:06:23.528Z,4.95
2023-05-19T03:08:51.277Z,5.07
2023-05-19T03:11:18.833Z,6.15
2023-05-19T03:13:46.778Z,6.00
2023-05-19T03:16:14.596Z,4.47
2023-05-19T03:18:42.236Z,5.57
2023-05-19T03:21:10.074Z,5.18
2023-05-19T03:23:37.630Z,5.55
2023-05-19T03:26:05.493Z,6.10
2023-05-19T03:28:33.439Z,5.10
2023-05-19T03:31:01.057Z,6.85
2023-05-19T03:33:30.042Z,5.97
2023-05-19T03:35:58.086Z,6.20
2023-05-19T03:38:25.894Z,5.53
2023-05-19T03:40:53.877Z,4.97
2023-05-19T03:43:21.926Z,5.40
2023-05-19T03:45:49.895Z,4.72
2023-05-19T03:48:21.118Z,5.28
2023-05-19T03:50:50.225Z,5.62
2023-05-19T03:53:17.955Z,4.93
2023-05-19T03:55:46.362Z,6.60
2023-05-19T03:58:14.688Z,6.28
2023-05-19T04:00:42.800Z,5.45
2023-05-19T04:03:10.797Z,6.15
2023-05-19T04:05:38.622Z,7.73
2023-05-19T04:08:06.244Z,5.90
2023-05-19T04:10:34.620Z,6.43
2023-05-19T04:13:02.267Z,6.12
2023-05-19T04:15:29.861Z,5.07
2023-05-19T04:17:57.838Z,6.37
2023-05-19T04:20:25.605Z,5.90
2023-05-19T04:22:53.198Z,6.18
2023-05-19T04:25:21.200Z,7.25
2023-05-19T04:27:49.313Z,6.60
2023-05-19T04:30:22.447Z,6.47
2023-05-19T04:32:51.255Z,5.93
2023-05-19T04:35:19.631Z,5.93
2023-05-19T04:37:47.445Z,6.12
2023-05-19T04:40:16.020Z,6.93
2023-05-19T04:42:46.091Z,7.10
2023-05-19T04:45:14.211Z,6.40
2023-05-19T04:47:42.539Z,9.15
2023-05-19T04:50:11.412Z,6.65
2023-05-19T04:52:39.008Z,6.62
2023-05-19T04:55:07.730Z,5.87
2023-05-19T04:57:35.776Z,7.12
2023-05-19T05:00:09.021Z,6.65
2023-05-19T05:02:37.898Z,5.50
2023-05-19T05:05:06.018Z,6.07
2023-05-19T05:07:33.593Z,6.67
2023-05-19T05:10:01.742Z,5.57
2023-05-19T05:12:31.040Z,5.97
2023-05-19T05:14:59.048Z,5.85
2023-05-19T05:17:28.370Z,6.87
2023-05-19T05:19:56.288Z,6.43
2023-05-19T05:22:24.123Z,6.60
2023-05-19T05:24:53.052Z,5.45
2023-05-19T05:27:21.499Z,6.93
2023-05-19T05:29:50.610Z,7.00
2023-05-19T05:32:20.443Z,5.50
2023-05-19T05:34:48.114Z,5.25
2023-05-19T05:37:16.106Z,7.50
2023-05-19T05:39:43.989Z,5.22
2023-05-19T05:42:12.098Z,6.10
2023-05-19T05:44:40.618Z,5.43
2023-05-19T05:47:08.991Z,5.10
2023-05-19T05:49:38.206Z,5.15
2023-05-19T05:52:08.431Z,4.93
2023-05-19T05:54:38.263Z,5.30
2023-05-19T05:57:06.501Z,4.93
2023-05-19T05:59:34.163Z,5.07
2023-05-19T06:02:02.137Z,6.45
2023-05-19T06:04:31.125Z,6.65
2023-05-19T06:07:01.708Z,8.30
2023-05-19T06:09:30.815Z,5.37
2023-05-19T06:12:00.334Z,5.12
2023-05-19T06:14:28.785Z,7.28
2023-05-19T06:17:03.936Z,6.45
2023-05-19T06:19:32.110Z,4.65
2023-05-19T06:22:00.008Z,5.77
2023-05-19T06:24:27.727Z,5.57
2023-05-19T06:26:55.327Z,5.35
2023-05-19T06:29:23.240Z,4.43
2023-05-19T06:31:51.620Z,3.70
2023-05-19T06:34:21.120Z,4.20
2023-05-19T06:36:49.176Z,4.50
2023-05-19T06:39:16.961Z,3.92
2023-05-19T06:41:44.573Z,4.80
2023-05-19T06:44:23.576Z,4.87
2023-05-19T06:46:51.238Z,3.63
2023-05-19T06:49:20.078Z,6.68
2023-05-19T06:51:49.297Z,4.40
2023-05-19T06:54:17.028Z,6.72
2023-05-19T06:56:45.315Z,4.05
2023-05-19T06:59:13.977Z,4.03
2023-05-19T07:01:41.572Z,4.57
2023-05-19T07:04:09.493Z,4.87
2023-05-19T07:06:37.278Z,5.12
2023-05-19T07:09:05.570Z,5.25
2023-05-19T07:11:33.840Z,5.80
2023-05-19T07:14:02.272Z,6.47
2023-05-19T07:16:31.413Z,8.65
2023-05-19T07:18:59.957Z,8.75
2023-05-19T07:21:27.528Z,8.77
2023-05-19T07:23:55.173Z,7.73
2023-05-19T07:26:23.682Z,7.45
2023-05-19T07:28:51.990Z,8.32
2023-05-19T07:31:19.664Z,6.43
2023-05-19T07:33:47.585Z,6.28
2023-05-19T07:36:15.216Z,6.70
2023-05-19T07:38:42.790Z,6.03
2023-05-19T07:41:11.071Z,7.40
2023-05-19T07:43:38.740Z,7.00
2023-05-19T07:46:06.511Z,7.78
2023-05-19T07:48:34.369Z,7.23
2023-05-19T07:51:02.557Z,8.35
2023-05-19T07:53:30.196Z,7.25
2023-05-19T07:55:58.790Z,7.10
2023-05-19T07:58:26.774Z,6.82
2023-05-19T08:00:59.564Z,7.67
2023-05-19T08:03:27.896Z,9.10
2023-05-19T08:05:55.627Z,8.77
2023-05-19T08:08:23.368Z,10.63
2023-05-19T08:10:51.574Z,8.30
2023-05-19T08:13:19.174Z,7.20
2023-05-19T08:15:46.877Z,7.20
2023-05-19T08:18:14.759Z,9.15
2023-05-19T08:20:42.342Z,9.13
2023-05-19T08:23:09.919Z,9.55
2023-05-19T08:25:37.770Z,8.53
2023-05-19T08:28:05.371Z,8.40
2023-05-19T08:30:33.094Z,7.03
2023-05-19T08:33:01.479Z,7.40
2023-05-19T08:35:29.141Z,10.73
2023-05-19T08:37:56.835Z,7.87
2023-05-19T08:40:27.364Z,8.15
2023-05-19T08:42:54.971Z,8.52
2023-05-19T08:45:22.633Z,8.15
2023-05-19T08:47:51.530Z,9.38
2023-05-19T08:50:25.583Z,8.50
2023-05-19T08:53:02.459Z,12.95
2023-05-19T08:55:55.602Z,10.23
2023-05-19T08:58:23.652Z,10.20
2023-05-19T09:00:52.295Z,8.23
2023-05-19T09:03:23.886Z,10.97
2023-05-19T09:05:52.221Z,8.82
2023-05-19T09:08:20.039Z,10.45
2023-05-19T09:10:47.567Z,6.90
2023-05-19T09:13:15.980Z,8.40
2023-05-19T09:15:45.623Z,9.87
2023-05-19T09:18:15.257Z,8.65
2023-05-19T09:20:44.375Z,8.05
2023-05-19T09:23:16.607Z,7.37
2023-05-19T09:25:52.460Z,10.25
2023-05-19T09:28:31.653Z,8.60
2023-05-19T09:31:04.808Z,6.10
2023-05-19T09:33:37.524Z,7.12
2023-05-19T09:36:06.565Z,6.20
2023-05-19T09:38:35.835Z,7.97
2023-05-19T09:41:05.162Z,5.63
2023-05-19T09:43:34.907Z,7.32
2023-05-19T09:46:06.951Z,6.47
2023-05-19T09:48:36.696Z,7.30
2023-05-19T09:51:07.766Z,9.65
2023-05-19T09:53:35.979Z,7.20
2023-05-19T09:56:03.813Z,6.25
2023-05-19T09:58:35.434Z,5.50
2023-05-19T10:01:04.830Z,3.78
2023-05-19T10:03:33.900Z,3.65
2023-05-19T10:06:02.358Z,3.90
2023-05-19T10:08:31.003Z,4.03
2023-05-19T10:10:59.944Z,5.30
2023-05-19T10:13:29.623Z,5.45
2023-05-19T10:15:59.780Z,5.00
2023-05-19T10:18:29.805Z,5.07
2023-05-19T10:20:58.266Z,4.85
2023-05-19T10:23:26.733Z,3.33
2023-05-19T10:25:59.153Z,4.55
2023-05-19T10:28:35.641Z,4.87
2023-05-19T10:31:06.952Z,4.27
2023-05-19T10:34:19.163Z,4.93
2023-05-19T10:37:02.477Z,6.03
2023-05-19T10:39:37.591Z,3.62
2023-05-19T10:42:14.667Z,3.55
2023-05-19T10:44:54.192Z,4.13
2023-05-19T10:47:26.368Z,5.82
2023-05-19T10:49:54.657Z,4.20
2023-05-19T10:52:27.265Z,3.65
2023-05-19T10:54:54.997Z,4.15
2023-05-19T10:57:32.041Z,5.00
2023-05-19T11:00:08.243Z,5.25
2023-05-19T11:02:44.108Z,3.65
2023-05-19T11:05:15.097Z,6.70
2023-05-19T11:07:44.716Z,3.28
2023-05-19T11:10:12.814Z,4.33
2023-05-19T11:12:45.960Z,4.97
2023-05-19T11:15:15.875Z,7.07
2023-05-19T11:17:48.721Z,4.20
2023-05-19T11:20:24.315Z,4.20
2023-05-19T11:23:04.016Z,4.27
2023-05-19T11:25:41.717Z,6.10
2023-05-19T11:28:12.267Z,4.75
2023-05-19T11:30:43.464Z,4.10
2023-05-19T11:33:11.227Z,4.43
2023-05-19T11:35:39.892Z,5.33
2023-05-19T11:38:08.132Z,5.55
2023-05-19T11:40:36.444Z,6.20
2023-05-19T11:43:04.001Z,4.97
2023-05-19T11:45:33.114Z,3.90
2023-05-19T11:48:04.091Z,5.00
2023-05-19T11:50:32.888Z,4.07
2023-05-19T11:53:01.553Z,3.62
2023-05-19T11:55:30.138Z,5.45
2023-05-19T11:58:05.564Z,4.80
2023-05-19T12:00:40.397Z,4.93
2023-05-19T12:03:09.574Z,5.93
2023-05-19T12:05:43.084Z,4.90
2023-05-19T12:08:12.182Z,4.25
2023-05-19T12:10:40.238Z,4.03
2023-05-19T12:13:11.440Z,4.47
2023-05-19T12:15:39.647Z,5.15
2023-05-19T12:18:07.574Z,3.47
2023-05-19T12:20:36.159Z,4.55
2023-05-19T12:23:05.231Z,4.80
2023-05-19T12:25:33.207Z,4.40
2023-05-19T12:28:05.205Z,4.65
2023-05-19T12:30:34.700Z,5.10
2023-05-19T12:33:03.307Z,3.70
2023-05-19T12:35:36.385Z,6.05
2023-05-19T12:38:05.233Z,5.53
2023-05-19T12:40:37.789Z,4.15
2023-05-19T12:43:07.019Z,5.40
2023-05-19T12:45:38.636Z,5.93
2023-05-19T12:48:12.053Z,4.93
2023-05-19T12:50:39.801Z,5.97
2023-05-19T12:53:14.645Z,5.45
2023-05-19T12:55:44.671Z,5.47
2023-05-19T12:58:13.366Z,6.32
2023-05-19T13:00:43.582Z,4.22
2023-05-19T13:03:19.652Z,4.70
2023-05-19T13:05:50.707Z,4.50
2023-05-19T13:08:21.633Z,4.43
2023-05-19T13:10:50.065Z,5.18
2023-05-19T13:13:17.957Z,3.67
2023-05-19T13:15:49.172Z,5.43
2023-05-19T13:18:17.779Z,5.07
2023-05-19T13:20:47.164Z,3.70
2023-05-19T13:23:15.211Z,4.65
2023-05-19T13:25:43.881Z,3.53
2023-05-19T13:28:12.233Z,5.30
2023-05-19T13:30:41.748Z,5.45
2023-05-19T13:33:09.857Z,3.90
2023-05-19T13:35:38.153Z,4.00
2023-05-19T13:38:10.464Z,5.10
2023-05-19T13:40:39.890Z,3.67
2023-05-19T13:43:08.825Z,5.55
2023-05-19T13:45:36.918Z,4.68
2023-05-19T13:48:07.456Z,3.42
2023-05-19T13:50:35.380Z,7.30
2023-05-19T13:53:04.020Z,4.90
2023-05-19T13:55:32.853Z,5.30
2023-05-19T13:58:00.449Z,4.12
2023-05-19T14:00:28.054Z,4.93
2023-05-19T14:02:56.006Z,5.72
2023-05-19T14:05:23.616Z,4.03
2023-05-19T14:07:51.761Z,7.03
2023-05-19T14:10:19.785Z,5.25
2023-05-19T14:13:14.145Z,3.67
2023-05-19T14:15:38.100Z,4.18
2023-05-19T14:18:06.951Z,6.33
2023-05-19T14:20:35.774Z,3.92
2023-05-19T14:23:03.673Z,5.40
2023-05-19T14:25:31.311Z,3.50
2023-05-19T14:27:59.308Z,6.50
2023-05-19T14:30:26.935Z,4.67
2023-05-19T14:32:54.531Z,4.55
2023-05-19T14:35:23.106Z,5.30
2023-05-19T14:37:51.774Z,5.03
2023-05-19T14:40:19.447Z,5.32
2023-05-19T14:42:47.490Z,4.60
2023-05-19T14:45:15.250Z,4.45
2023-05-19T14:47:42.897Z,4.50
2023-05-19T14:50:10.739Z,5.47
2023-05-19T14:52:38.629Z,4.25
2023-05-19T14:55:06.520Z,4.07
2023-05-19T14:57:34.423Z,4.28
2023-05-19T15:00:02.404Z,5.93
2023-05-19T15:02:31.012Z,7.28
2023-05-19T15:05:00.154Z,4.87
2023-05-19T15:07:27.763Z,5.67
2023-05-19T15:09:55.620Z,5.53
2023-05-19T15:12:23.493Z,4.57
2023-05-19T15:14:51.213Z,6.85
2023-05-19T15:17:19.095Z,4.43
2023-05-19T15:19:47.085Z,4.87
2023-05-19T15:22:14.898Z,4.45
2023-05-19T15:24:42.704Z,5.70
2023-05-19T15:27:10.902Z,4.40
2023-05-19T15:29:38.471Z,8.07
2023-05-19T15:32:06.600Z,3.93
2023-05-19T15:34:34.661Z,4.75
2023-05-19T15:37:02.424Z,3.90
2023-05-19T15:39:31.454Z,7.03
2023-05-19T15:41:59.726Z,3.53
2023-05-19T15:44:29.008Z,3.93
2023-05-19T15:46:56.823Z,5.62
2023-05-19T15:49:25.364Z,4.60
2023-05-19T15:51:52.880Z,4.57
2023-05-19T15:54:20.476Z,4.78
2023-05-19T15:56:48.316Z,6.43
2023-05-19T15:59:15.848Z,4.20
2023-05-19T16:01:43.457Z,4.47
2023-05-19T16:04:11.466Z,3.33
2023-05-19T16:06:39.175Z,3.45
2023-05-19T16:09:06.752Z,4.43
2023-05-19T16:11:34.615Z,5.70
2023-05-19T16:14:02.178Z,4.93
2023-05-19T16:16:29.792Z,4.78
2023-05-19T16:18:57.721Z,5.37
2023-05-19T16:21:25.397Z,5.73
2023-05-19T16:23:52.993Z,4.32
2023-05-19T16:26:22.149Z,4.72
2023-05-19T16:28:49.656Z,4.80
2023-05-19T16:31:17.252Z,4.12
2023-05-19T16:33:45.352Z,7.10
2023-05-19T16:36:12.861Z,5.28
2023-05-19T16:38:40.461Z,5.18
2023-05-19T16:41:11.895Z,9.82
2023-05-19T16:43:39.552Z,4.72
2023-05-19T16:46:07.178Z,18.97
2023-05-19T16:48:35.172Z,13.95
2023-05-19T16:51:02.797Z,10.95
2023-05-19T16:53:31.198Z,11.00
2023-05-19T16:56:02.162Z,8.07
2023-05-19T16:58:31.058Z,7.73
2023-05-19T17:00:59.077Z,12.45
2023-05-19T17:03:26.714Z,10.00
2023-05-19T17:05:54.334Z,7.45
2023-05-19T17:08:22.175Z,7.28
2023-05-19T17:10:49.781Z,8.17
2023-05-19T17:13:17.481Z,11.73
2023-05-19T17:15:45.544Z,11.10
2023-05-19T17:18:13.289Z,7.78
2023-05-19T17:20:41.645Z,5.75
2023-05-19T17:23:09.653Z,7.20
2023-05-19T17:25:37.210Z,11.00
2023-05-19T17:28:04.831Z,8.88
2023-05-19T17:30:33.114Z,5.65
2023-05-19T17:33:00.929Z,7.47
2023-05-19T17:35:28.743Z,5.37
2023-05-19T17:37:57.937Z,5.47
2023-05-19T17:40:25.554Z,7.20
2023-05-19T17:42:53.128Z,5.18
2023-05-19T17:45:21.083Z,5.22
2023-05-19T17:47:48.745Z,8.00
2023-05-19T17:50:16.317Z,7.18
2023-05-19T17:52:44.927Z,6.68
2023-05-19T17:55:13.032Z,13.00
2023-05-19T17:57:45.031Z,11.48
2023-05-19T18:00:13.377Z,10.23
2023-05-19T18:02:41.517Z,8.48
2023-05-19T18:05:09.938Z,8.63
2023-05-19T18:07:39.656Z,12.35
2023-05-19T18:10:08.933Z,5.30
2023-05-19T18:12:36.735Z,5.20
2023-05-19T18:15:04.710Z,6.50
2023-05-19T18:17:32.666Z,7.85
2023-05-19T18:20:00.255Z,6.30
2023-05-19T18:22:27.791Z,5.70
2023-05-19T18:24:56.279Z,4.67
2023-05-19T18:27:23.900Z,6.05
2023-05-19T18:29:51.437Z,5.32
2023-05-19T18:32:19.362Z,6.50
2023-05-19T18:34:47.046Z,4.68
2023-05-19T18:37:14.793Z,7.87
2023-05-19T18:39:43.444Z,5.40
2023-05-19T18:42:11.421Z,4.90
2023-05-19T18:44:39.484Z,6.18
2023-05-19T18:47:23.780Z,4.82
2023-05-19T18:49:54.253Z,4.77
2023-05-19T18:52:22.209Z,6.18
2023-05-19T18:54:50.386Z,8.45
2023-05-19T18:57:17.946Z,6.95
2023-05-19T18:59:45.948Z,6.90
2023-05-19T19:02:13.519Z,7.40
2023-05-19T19:04:41.150Z,5.90
2023-05-19T19:07:08.985Z,7.90
2023-05-19T19:09:36.656Z,5.53
2023-05-19T19:12:04.324Z,6.95
2023-05-19T19:14:32.228Z,5.40
2023-05-19T19:16:59.871Z,5.03
2023-05-19T19:19:29.879Z,6.12
2023-05-19T19:21:57.865Z,5.35
2023-05-19T19:24:26.517Z,6.03
2023-05-19T19:26:54.120Z,7.87
2023-05-19T19:29:22.208Z,6.12
2023-05-19T19:31:49.906Z,5.68
2023-05-19T19:34:19.949Z,5.78
2023-05-19T19:36:48.057Z,5.78
2023-05-19T19:39:15.696Z,6.10
2023-05-19T19:41:43.354Z,7.18
2023-05-19T19:44:11.272Z,10.80
2023-05-19T19:46:38.855Z,7.05
2023-05-19T19:49:06.510Z,7.93
2023-05-19T19:51:34.454Z,7.03
2023-05-19T19:54:02.138Z,6.62
2023-05-19T19:56:29.728Z,6.82
2023-05-19T19:58:59.088Z,6.65
2023-05-19T20:01:27.930Z,6.18
2023-05-19T20:03:57.587Z,7.27
2023-05-19T20:06:25.157Z,7.70
2023-05-19T20:08:52.701Z,6.20
2023-05-19T20:11:22.914Z,6.37
2023-05-19T20:13:50.694Z,6.93
2023-05-19T20:16:18.466Z,6.37
2023-05-19T20:18:46.412Z,6.87
2023-05-19T20:21:13.967Z,6.25
2023-05-19T20:23:41.520Z,10.27
2023-05-19T20:26:12.992Z,7.00
2023-05-19T20:28:41.207Z,8.47
2023-05-19T20:31:09.125Z,7.18
2023-05-19T20:33:36.635Z,6.97
2023-05-19T20:36:06.188Z,7.35
2023-05-19T20:38:34.112Z,6.50
2023-05-19T20:41:02.140Z,8.37
2023-05-19T20:43:29.818Z,7.07
2023-05-19T20:45:57.978Z,5.90
2023-05-19T20:48:25.912Z,6.22
2023-05-19T20:50:54.384Z,7.50
2023-05-19T20:53:22.286Z,9.03
2023-05-19T20:55:49.968Z,8.95
2023-05-19T20:58:17.551Z,5.87
2023-05-19T21:00:45.546Z,7.20
2023-05-19T21:03:13.222Z,8.38
2023-05-19T21:05:40.945Z,6.90
2023-05-19T21:08:12.867Z,7.37
2023-05-19T21:10:40.994Z,7.93
2023-05-19T21:13:08.933Z,7.12
2023-05-19T21:15:36.479Z,8.95
2023-05-19T21:18:04.175Z,6.27
2023-05-19T21:20:32.273Z,5.50
2023-05-19T21:22:59.955Z,7.35
2023-05-19T21:25:27.956Z,7.87
2023-05-19T21:27:56.197Z,5.80
2023-05-19T21:30:24.581Z,7.33
2023-05-19T21:32:52.228Z,6.32
2023-05-19T21:35:20.157Z,7.20
2023-05-19T21:37:47.722Z,9.70
2023-05-19T21:40:15.249Z,5.28
2023-05-19T21:42:43.140Z,6.57
2023-05-19T21:45:11.126Z,6.45
2023-05-19T21:47:38.737Z,6.18
2023-05-19T21:50:07.454Z,6.43
2023-05-19T21:52:36.470Z,5.95
2023-05-19T21:55:04.394Z,6.37
2023-05-19T21:57:32.240Z,6.28
2023-05-19T21:59:59.766Z,6.62
2023-05-19T22:02:27.472Z,6.87
2023-05-19T22:04:55.349Z,7.40
2023-05-19T22:07:27.014Z,7.53
2023-05-19T22:09:55.026Z,8.68
2023-05-19T22:12:23.865Z,9.30
2023-05-19T22:14:51.439Z,6.20
2023-05-19T22:17:19.297Z,7.22
2023-05-19T22:19:46.885Z,10.03
2023-05-19T22:22:14.810Z,8.40
2023-05-19T22:24:43.220Z,10.27
2023-05-19T22:27:10.814Z,7.22
2023-05-19T22:29:41.401Z,6.35
2023-05-19T22:32:12.195Z,7.50
2023-05-19T22:34:40.314Z,8.90
2023-05-19T22:37:07.991Z,7.07
2023-05-19T22:39:35.881Z,7.85
2023-05-19T22:42:03.524Z,7.90
2023-05-19T22:44:31.263Z,10.30
2023-05-19T22:46:59.166Z,7.22
2023-05-19T22:49:27.519Z,7.65
2023-05-19T22:51:55.016Z,8.85
2023-05-19T22:54:23.062Z,7.43
2023-05-19T22:56:50.645Z,8.27
2023-05-19T22:59:18.270Z,8.07
2023-05-19T23:01:46.839Z,6.70
2023-05-19T23:04:14.681Z,9.05
2023-05-19T23:06:42.266Z,10.38
2023-05-19T23:09:10.148Z,7.50
2023-05-19T23:11:37.688Z,6.97
2023-05-19T23:14:05.310Z,8.65
2023-05-19T23:16:33.247Z,7.10
2023-05-19T23:19:01.053Z,8.10
2023-05-19T23:21:30.394Z,8.37
2023-05-19T23:23:58.502Z,7.65
2023-05-19T23:26:26.993Z,12.55
2023-05-19T23:28:54.616Z,8.38
2023-05-19T23:31:22.633Z,12.37
2023-05-19T23:33:50.524Z,6.67
2023-05-19T23:36:18.258Z,7.87
2023-05-19T23:38:46.116Z,9.25
2023-05-19T23:41:14.045Z,8.50
2023-05-19T23:43:41.520Z,9.45
2023-05-19T23:46:09.489Z,8.80
2023-05-19T23:48:37.083Z,7.47
2023-05-19T23:51:04.888Z,8.93
2023-05-19T23:53:32.839Z,8.55
2023-05-19T23:56:00.385Z,9.13
2023-05-19T23:58:28.039Z,7.57
